sensor_id;sensor_type;location;lat;lon;timestamp;temperature;humidity
77467;DHT22;66564;42.482;25.548;2023-02-28T00:00:36;11.93;65.71
77467;DHT22;66564;42.482;25.548;2023-02-28T00:03:02;11.88;66.31
77467;DHT22;66564;42.482;25.548;2023-02-28T00:05:28;11.91;66.36
77467;DHT22;66564;42.482;25.548;2023-02-28T00:07:54;11.91;66.37
77467;DHT22;66564;42.482;25.548;2023-02-28T00:10:25;11.92;66.30
77467;DHT22;66564;42.482;25.548;2023-02-28T00:12:53;11.83;66.48
77467;DHT22;66564;42.482;25.548;2023-02-28T00:15:19;11.85;66.12
77467;DHT22;66564;42.482;25.548;2023-02-28T00:17:45;11.89;65.99
77467;DHT22;66564;42.482;25.548;2023-02-28T00:20:12;11.86;65.93
77467;DHT22;66564;42.482;25.548;2023-02-28T00:22:39;11.86;65.71
77467;DHT22;66564;42.482;25.548;2023-02-28T00:25:06;11.86;65.50
77467;DHT22;66564;42.482;25.548;2023-02-28T00:27:33;11.89;65.67
77467;DHT22;66564;42.482;25.548;2023-02-28T00:29:58;11.89;66.42
77467;DHT22;66564;42.482;25.548;2023-02-28T00:32:24;11.91;66.68
77467;DHT22;66564;42.482;25.548;2023-02-28T00:34:50;11.91;66.13
77467;DHT22;66564;42.482;25.548;2023-02-28T00:37:16;11.93;66.70
77467;DHT22;66564;42.482;25.548;2023-02-28T00:39:41;11.93;66.76
77467;DHT22;66564;42.482;25.548;2023-02-28T00:42:07;11.98;67.44
77467;DHT22;66564;42.482;25.548;2023-02-28T00:44:33;11.96;67.62
77467;DHT22;66564;42.482;25.548;2023-02-28T00:46:59;11.93;67.37
77467;DHT22;66564;42.482;25.548;2023-02-28T00:49:26;11.93;67.65
77467;DHT22;66564;42.482;25.548;2023-02-28T00:51:52;11.93;67.45
77467;DHT22;66564;42.482;25.548;2023-02-28T00:54:18;11.89;67.25
77467;DHT22;66564;42.482;25.548;2023-02-28T00:56:44;11.88;67.01
77467;DHT22;66564;42.482;25.548;2023-02-28T00:59:11;11.91;67.15
77467;DHT22;66564;42.482;25.548;2023-02-28T01:01:37;11.95;67.17
77467;DHT22;66564;42.482;25.548;2023-02-28T01:04:02;11.93;66.68
77467;DHT22;66564;42.482;25.548;2023-02-28T01:06:28;11.96;67.35
77467;DHT22;66564;42.482;25.548;2023-02-28T01:08:54;11.99;66.84
77467;DHT22;66564;42.482;25.548;2023-02-28T01:11:19;12.03;67.43
77467;DHT22;66564;42.482;25.548;2023-02-28T01:13:45;12.03;67.46
77467;DHT22;66564;42.482;25.548;2023-02-28T01:16:12;12.03;67.66
77467;DHT22;66564;42.482;25.548;2023-02-28T01:18:38;11.99;67.84
77467;DHT22;66564;42.482;25.548;2023-02-28T01:21:09;11.92;67.47
77467;DHT22;66564;42.482;25.548;2023-02-28T01:23:35;11.91;67.67
77467;DHT22;66564;42.482;25.548;2023-02-28T01:26:29;11.77;67.77
77467;DHT22;66564;42.482;25.548;2023-02-28T01:28:54;11.81;67.41
77467;DHT22;66564;42.482;25.548;2023-02-28T01:31:20;11.82;67.84
77467;DHT22;66564;42.482;25.548;2023-02-28T01:33:46;11.78;67.86
77467;DHT22;66564;42.482;25.548;2023-02-28T01:36:17;11.69;68.35
77467;DHT22;66564;42.482;25.548;2023-02-28T01:38:44;11.67;69.31
77467;DHT22;66564;42.482;25.548;2023-02-28T01:41:24;11.50;70.01
77467;DHT22;66564;42.482;25.548;2023-02-28T01:46:15;11.30;70.73
77467;DHT22;66564;42.482;25.548;2023-02-28T01:48:48;11.23;71.07
77467;DHT22;66564;42.482;25.548;2023-02-28T01:51:39;11.07;71.74
77467;DHT22;66564;42.482;25.548;2023-02-28T01:54:14;10.99;72.19
77467;DHT22;66564;42.482;25.548;2023-02-28T01:56:53;11.03;72.38
77467;DHT22;66564;42.482;25.548;2023-02-28T01:59:59;10.93;72.75
77467;DHT22;66564;42.482;25.548;2023-02-28T02:02:27;10.84;72.98
77467;DHT22;66564;42.482;25.548;2023-02-28T02:05:05;10.81;73.03
77467;DHT22;66564;42.482;25.548;2023-02-28T02:07:36;10.83;73.15
77467;DHT22;66564;42.482;25.548;2023-02-28T02:10:13;10.72;73.50
77467;DHT22;66564;42.482;25.548;2023-02-28T02:15:44;10.52;74.10
77467;DHT22;66564;42.482;25.548;2023-02-28T02:18:48;10.43;74.47
77467;DHT22;66564;42.482;25.548;2023-02-28T02:35:16;10.39;74.40
77467;DHT22;66564;42.482;25.548;2023-02-28T02:38:05;10.39;74.33
77467;DHT22;66564;42.482;25.548;2023-02-28T02:43:18;10.12;74.80
77467;DHT22;66564;42.482;25.548;2023-02-28T02:45:46;10.13;74.65
77467;DHT22;66564;42.482;25.548;2023-02-28T02:48:16;10.12;74.71
77467;DHT22;66564;42.482;25.548;2023-02-28T02:50:50;10.13;74.52
77467;DHT22;66564;42.482;25.548;2023-02-28T02:53:18;10.16;74.25
77467;DHT22;66564;42.482;25.548;2023-02-28T02:55:48;10.20;73.89
77467;DHT22;66564;42.482;25.548;2023-02-28T02:58:22;10.19;73.84
77467;DHT22;66564;42.482;25.548;2023-02-28T03:00:52;10.20;73.68
77467;DHT22;66564;42.482;25.548;2023-02-28T03:03:19;10.08;74.04
77467;DHT22;66564;42.482;25.548;2023-02-28T03:05:55;9.95;74.54
77467;DHT22;66564;42.482;25.548;2023-02-28T03:08:21;10.08;74.09
77467;DHT22;66564;42.482;25.548;2023-02-28T03:10:52;10.15;73.37
77467;DHT22;66564;42.482;25.548;2023-02-28T03:13:47;10.16;73.44
77467;DHT22;66564;42.482;25.548;2023-02-28T03:27:29;10.20;72.99
77467;DHT22;66564;42.482;25.548;2023-02-28T03:30:22;10.23;72.88
77467;DHT22;66564;42.482;25.548;2023-02-28T03:32:59;10.03;73.64
77467;DHT22;66564;42.482;25.548;2023-02-28T03:35:28;10.05;73.58
77467;DHT22;66564;42.482;25.548;2023-02-28T03:38:01;9.99;73.50
77467;DHT22;66564;42.482;25.548;2023-02-28T03:40:32;10.05;73.09
77467;DHT22;66564;42.482;25.548;2023-02-28T03:43:07;10.10;73.11
77467;DHT22;66564;42.482;25.548;2023-02-28T03:45:36;10.19;72.64
77467;DHT22;66564;42.482;25.548;2023-02-28T03:50:38;10.29;72.05
77467;DHT22;66564;42.482;25.548;2023-02-28T03:53:12;10.33;71.73
77467;DHT22;66564;42.482;25.548;2023-02-28T03:55:56;10.35;71.77
77467;DHT22;66564;42.482;25.548;2023-02-28T04:01:33;10.16;72.40
77467;DHT22;66564;42.482;25.548;2023-02-28T04:04:00;10.19;71.99
77467;DHT22;66564;42.482;25.548;2023-02-28T04:06:26;10.05;72.32
77467;DHT22;66564;42.482;25.548;2023-02-28T04:08:52;9.91;72.69
77467;DHT22;66564;42.482;25.548;2023-02-28T04:13:53;10.03;72.09
77467;DHT22;66564;42.482;25.548;2023-02-28T04:16:18;10.02;72.15
77467;DHT22;66564;42.482;25.548;2023-02-28T04:18:44;10.01;71.96
77467;DHT22;66564;42.482;25.548;2023-02-28T04:21:10;10.02;72.08
77467;DHT22;66564;42.482;25.548;2023-02-28T04:23:36;9.92;71.93
77467;DHT22;66564;42.482;25.548;2023-02-28T04:26:02;10.03;71.75
77467;DHT22;66564;42.482;25.548;2023-02-28T04:28:27;10.06;71.61
77467;DHT22;66564;42.482;25.548;2023-02-28T04:31:02;10.10;71.32
77467;DHT22;66564;42.482;25.548;2023-02-28T04:33:28;10.13;70.93
77467;DHT22;66564;42.482;25.548;2023-02-28T04:36:05;10.15;70.88
77467;DHT22;66564;42.482;25.548;2023-02-28T04:38:33;10.19;70.60
77467;DHT22;66564;42.482;25.548;2023-02-28T04:40:59;10.23;70.46
77467;DHT22;66564;42.482;25.548;2023-02-28T04:43:28;10.25;70.32
77467;DHT22;66564;42.482;25.548;2023-02-28T04:45:55;10.30;70.03
77467;DHT22;66564;42.482;25.548;2023-02-28T04:48:25;10.26;70.20
77467;DHT22;66564;42.482;25.548;2023-02-28T04:50:51;10.29;69.81
77467;DHT22;66564;42.482;25.548;2023-02-28T04:53:17;10.28;69.97
77467;DHT22;66564;42.482;25.548;2023-02-28T04:55:42;10.30;69.88
77467;DHT22;66564;42.482;25.548;2023-02-28T04:58:08;10.26;69.96
77467;DHT22;66564;42.482;25.548;2023-02-28T05:00:34;10.05;70.97
77467;DHT22;66564;42.482;25.548;2023-02-28T05:02:59;10.08;70.88
77467;DHT22;66564;42.482;25.548;2023-02-28T05:05:25;10.09;71.27
77467;DHT22;66564;42.482;25.548;2023-02-28T05:07:50;10.06;71.49
77467;DHT22;66564;42.482;25.548;2023-02-28T05:10:16;10.02;71.20
77467;DHT22;66564;42.482;25.548;2023-02-28T05:12:41;10.02;71.17
77467;DHT22;66564;42.482;25.548;2023-02-28T05:15:10;10.03;71.21
77467;DHT22;66564;42.482;25.548;2023-02-28T05:17:37;10.03;71.25
77467;DHT22;66564;42.482;25.548;2023-02-28T05:20:03;10.05;70.95
77467;DHT22;66564;42.482;25.548;2023-02-28T05:22:30;10.02;71.23
77467;DHT22;66564;42.482;25.548;2023-02-28T05:24:55;10.02;71.06
77467;DHT22;66564;42.482;25.548;2023-02-28T05:27:21;9.98;70.79
77467;DHT22;66564;42.482;25.548;2023-02-28T05:29:46;9.86;70.66
77467;DHT22;66564;42.482;25.548;2023-02-28T05:32:12;9.82;70.43
77467;DHT22;66564;42.482;25.548;2023-02-28T05:34:38;9.70;70.78
77467;DHT22;66564;42.482;25.548;2023-02-28T05:37:14;9.68;70.69
77467;DHT22;66564;42.482;25.548;2023-02-28T05:39:41;9.54;70.76
77467;DHT22;66564;42.482;25.548;2023-02-28T05:42:07;9.48;70.66
77467;DHT22;66564;42.482;25.548;2023-02-28T05:44:33;9.59;70.21
77467;DHT22;66564;42.482;25.548;2023-02-28T05:46:58;9.47;70.42
77467;DHT22;66564;42.482;25.548;2023-02-28T05:49:24;9.50;70.49
77467;DHT22;66564;42.482;25.548;2023-02-28T05:51:49;9.51;70.29
77467;DHT22;66564;42.482;25.548;2023-02-28T05:54:15;9.30;70.78
77467;DHT22;66564;42.482;25.548;2023-02-28T05:56:40;8.86;72.44
77467;DHT22;66564;42.482;25.548;2023-02-28T05:59:09;8.84;72.42
77467;DHT22;66564;42.482;25.548;2023-02-28T06:01:39;8.80;72.97
77467;DHT22;66564;42.482;25.548;2023-02-28T06:04:08;8.91;72.51
77467;DHT22;66564;42.482;25.548;2023-02-28T06:06:34;8.97;72.26
77467;DHT22;66564;42.482;25.548;2023-02-28T06:09:01;8.89;72.49
77467;DHT22;66564;42.482;25.548;2023-02-28T06:11:27;8.93;72.42
77467;DHT22;66564;42.482;25.548;2023-02-28T06:13:57;8.76;72.95
77467;DHT22;66564;42.482;25.548;2023-02-28T06:16:25;8.84;72.81
77467;DHT22;66564;42.482;25.548;2023-02-28T06:18:50;8.87;72.80
77467;DHT22;66564;42.482;25.548;2023-02-28T06:21:17;8.72;73.17
77467;DHT22;66564;42.482;25.548;2023-02-28T06:23:43;8.65;73.37
77467;DHT22;66564;42.482;25.548;2023-02-28T06:26:09;8.72;73.18
77467;DHT22;66564;42.482;25.548;2023-02-28T06:28:35;8.69;73.20
77467;DHT22;66564;42.482;25.548;2023-02-28T06:31:07;8.66;73.46
77467;DHT22;66564;42.482;25.548;2023-02-28T06:33:33;8.63;73.72
77467;DHT22;66564;42.482;25.548;2023-02-28T06:35:58;8.56;74.00
77467;DHT22;66564;42.482;25.548;2023-02-28T06:38:24;8.60;73.90
77467;DHT22;66564;42.482;25.548;2023-02-28T06:40:53;8.25;74.91
77467;DHT22;66564;42.482;25.548;2023-02-28T06:43:19;8.38;74.74
77467;DHT22;66564;42.482;25.548;2023-02-28T06:45:45;8.45;74.37
77467;DHT22;66564;42.482;25.548;2023-02-28T06:48:10;8.45;74.26
77467;DHT22;66564;42.482;25.548;2023-02-28T06:50:36;8.44;74.31
77467;DHT22;66564;42.482;25.548;2023-02-28T06:53:02;8.38;74.38
77467;DHT22;66564;42.482;25.548;2023-02-28T06:55:27;8.28;74.57
77467;DHT22;66564;42.482;25.548;2023-02-28T06:57:53;8.45;74.18
77467;DHT22;66564;42.482;25.548;2023-02-28T07:00:20;8.44;74.11
77467;DHT22;66564;42.482;25.548;2023-02-28T07:02:46;8.22;74.77
77467;DHT22;66564;42.482;25.548;2023-02-28T07:05:12;8.31;74.43
77467;DHT22;66564;42.482;25.548;2023-02-28T07:07:38;8.41;74.17
77467;DHT22;66564;42.482;25.548;2023-02-28T07:10:09;8.24;74.83
77467;DHT22;66564;42.482;25.548;2023-02-28T07:12:36;8.22;74.54
77467;DHT22;66564;42.482;25.548;2023-02-28T07:15:03;8.22;74.97
77467;DHT22;66564;42.482;25.548;2023-02-28T07:17:29;8.16;75.07
77467;DHT22;66564;42.482;25.548;2023-02-28T07:19:55;8.22;74.65
77467;DHT22;66564;42.482;25.548;2023-02-28T07:22:20;8.21;75.00
77467;DHT22;66564;42.482;25.548;2023-02-28T07:24:46;8.35;74.72
77467;DHT22;66564;42.482;25.548;2023-02-28T07:27:11;8.25;74.92
77467;DHT22;66564;42.482;25.548;2023-02-28T07:29:37;8.14;75.44
77467;DHT22;66564;42.482;25.548;2023-02-28T07:32:03;8.15;75.42
77467;DHT22;66564;42.482;25.548;2023-02-28T07:34:29;8.25;75.36
77467;DHT22;66564;42.482;25.548;2023-02-28T07:36:55;8.06;76.02
77467;DHT22;66564;42.482;25.548;2023-02-28T07:39:21;8.25;75.68
77467;DHT22;66564;42.482;25.548;2023-02-28T07:41:47;8.22;76.24
77467;DHT22;66564;42.482;25.548;2023-02-28T07:44:13;8.24;75.94
77467;DHT22;66564;42.482;25.548;2023-02-28T07:46:38;8.29;75.70
77467;DHT22;66564;42.482;25.548;2023-02-28T07:49:05;8.32;75.41
77467;DHT22;66564;42.482;25.548;2023-02-28T07:51:31;8.38;75.41
77467;DHT22;66564;42.482;25.548;2023-02-28T07:53:57;8.22;76.05
77467;DHT22;66564;42.482;25.548;2023-02-28T07:56:22;8.36;75.72
77467;DHT22;66564;42.482;25.548;2023-02-28T07:58:48;8.36;75.89
77467;DHT22;66564;42.482;25.548;2023-02-28T08:01:14;8.48;75.40
77467;DHT22;66564;42.482;25.548;2023-02-28T08:03:39;8.49;75.32
77467;DHT22;66564;42.482;25.548;2023-02-28T08:06:07;8.50;75.14
77467;DHT22;66564;42.482;25.548;2023-02-28T08:08:32;8.45;75.33
77467;DHT22;66564;42.482;25.548;2023-02-28T08:11:02;8.39;75.68
77467;DHT22;66564;42.482;25.548;2023-02-28T08:13:29;8.41;76.16
77467;DHT22;66564;42.482;25.548;2023-02-28T08:15:55;8.46;75.81
77467;DHT22;66564;42.482;25.548;2023-02-28T08:18:24;8.56;75.46
77467;DHT22;66564;42.482;25.548;2023-02-28T08:20:49;8.67;75.74
77467;DHT22;66564;42.482;25.548;2023-02-28T08:23:15;8.69;75.20
77467;DHT22;66564;42.482;25.548;2023-02-28T08:25:40;8.77;75.56
77467;DHT22;66564;42.482;25.548;2023-02-28T08:28:06;8.75;75.60
77467;DHT22;66564;42.482;25.548;2023-02-28T08:30:31;8.70;75.21
77467;DHT22;66564;42.482;25.548;2023-02-28T08:32:57;8.44;75.95
77467;DHT22;66564;42.482;25.548;2023-02-28T08:35:22;8.44;76.12
77467;DHT22;66564;42.482;25.548;2023-02-28T08:37:50;8.42;76.13
77467;DHT22;66564;42.482;25.548;2023-02-28T08:40:16;8.48;75.96
77467;DHT22;66564;42.482;25.548;2023-02-28T08:42:46;8.45;76.17
77467;DHT22;66564;42.482;25.548;2023-02-28T08:45:13;8.41;75.85
77467;DHT22;66564;42.482;25.548;2023-02-28T08:47:40;8.48;75.69
77467;DHT22;66564;42.482;25.548;2023-02-28T08:50:06;8.53;76.29
77467;DHT22;66564;42.482;25.548;2023-02-28T08:52:32;8.48;76.58
77467;DHT22;66564;42.482;25.548;2023-02-28T08:54:58;8.52;76.21
77467;DHT22;66564;42.482;25.548;2023-02-28T08:57:24;8.57;76.13
77467;DHT22;66564;42.482;25.548;2023-02-28T08:59:51;8.69;76.30
77467;DHT22;66564;42.482;25.548;2023-02-28T09:02:17;8.83;75.59
77467;DHT22;66564;42.482;25.548;2023-02-28T09:04:43;8.83;75.91
77467;DHT22;66564;42.482;25.548;2023-02-28T09:07:11;8.62;76.08
77467;DHT22;66564;42.482;25.548;2023-02-28T09:09:36;8.76;75.97
77467;DHT22;66564;42.482;25.548;2023-02-28T09:12:02;8.73;76.12
77467;DHT22;66564;42.482;25.548;2023-02-28T09:14:28;8.52;77.00
77467;DHT22;66564;42.482;25.548;2023-02-28T09:16:54;8.75;76.20
77467;DHT22;66564;42.482;25.548;2023-02-28T09:19:20;8.63;76.49
77467;DHT22;66564;42.482;25.548;2023-02-28T09:21:45;8.75;76.33
77467;DHT22;66564;42.482;25.548;2023-02-28T09:24:11;8.86;75.93
77467;DHT22;66564;42.482;25.548;2023-02-28T09:26:39;8.83;75.78
77467;DHT22;66564;42.482;25.548;2023-02-28T09:29:05;8.90;75.63
77467;DHT22;66564;42.482;25.548;2023-02-28T09:31:32;8.89;75.79
77467;DHT22;66564;42.482;25.548;2023-02-28T09:33:58;9.00;75.32
77467;DHT22;66564;42.482;25.548;2023-02-28T09:36:25;8.66;77.42
77467;DHT22;66564;42.482;25.548;2023-02-28T09:38:51;8.83;76.70
77467;DHT22;66564;42.482;25.548;2023-02-28T09:41:35;8.96;76.00
77467;DHT22;66564;42.482;25.548;2023-02-28T09:44:05;9.00;75.78
77467;DHT22;66564;42.482;25.548;2023-02-28T09:46:37;9.01;75.96
77467;DHT22;66564;42.482;25.548;2023-02-28T09:49:11;8.67;77.31
77467;DHT22;66564;42.482;25.548;2023-02-28T09:51:56;8.90;76.68
77467;DHT22;66564;42.482;25.548;2023-02-28T09:54:24;8.90;76.72
77467;DHT22;66564;42.482;25.548;2023-02-28T09:57:47;8.96;76.15
77467;DHT22;66564;42.482;25.548;2023-02-28T10:05:20;9.13;75.52
77467;DHT22;66564;42.482;25.548;2023-02-28T10:13:12;9.23;75.97
77467;DHT22;66564;42.482;25.548;2023-02-28T10:15:39;9.26;75.88
77467;DHT22;66564;42.482;25.548;2023-02-28T10:18:08;9.28;75.71
77467;DHT22;66564;42.482;25.548;2023-02-28T10:20:37;9.28;75.12
77467;DHT22;66564;42.482;25.548;2023-02-28T10:25:34;9.30;75.11
77467;DHT22;66564;42.482;25.548;2023-02-28T10:28:13;9.28;75.75
77467;DHT22;66564;42.482;25.548;2023-02-28T10:30:48;9.33;75.59
77467;DHT22;66564;42.482;25.548;2023-02-28T10:33:33;9.28;75.39
77467;DHT22;66564;42.482;25.548;2023-02-28T10:36:03;9.34;75.02
77467;DHT22;66564;42.482;25.548;2023-02-28T10:41:28;9.57;74.15
77467;DHT22;66564;42.482;25.548;2023-02-28T10:44:17;9.68;73.74
77467;DHT22;66564;42.482;25.548;2023-02-28T10:46:45;9.61;73.79
77467;DHT22;66564;42.482;25.548;2023-02-28T10:49:15;9.68;73.57
77467;DHT22;66564;42.482;25.548;2023-02-28T10:51:42;9.81;73.02
77467;DHT22;66564;42.482;25.548;2023-02-28T10:54:30;9.84;72.89
77467;DHT22;66564;42.482;25.548;2023-02-28T10:57:17;9.89;72.54
77467;DHT22;66564;42.482;25.548;2023-02-28T10:59:43;9.89;71.95
77467;DHT22;66564;42.482;25.548;2023-02-28T11:02:29;9.92;71.99
77467;DHT22;66564;42.482;25.548;2023-02-28T11:04:55;10.01;71.30
77467;DHT22;66564;42.482;25.548;2023-02-28T11:07:22;10.09;71.39
77467;DHT22;66564;42.482;25.548;2023-02-28T11:09:52;10.08;71.18
77467;DHT22;66564;42.482;25.548;2023-02-28T11:14:56;10.16;71.23
77467;DHT22;66564;42.482;25.548;2023-02-28T11:17:31;10.19;71.21
77467;DHT22;66564;42.482;25.548;2023-02-28T11:20:02;10.26;70.74
77467;DHT22;66564;42.482;25.548;2023-02-28T11:22:31;9.98;71.81
77467;DHT22;66564;42.482;25.548;2023-02-28T11:25:02;10.15;71.14
77467;DHT22;66564;42.482;25.548;2023-02-28T11:30:00;10.15;70.98
77467;DHT22;66564;42.482;25.548;2023-02-28T11:32:28;10.22;70.41
77467;DHT22;66564;42.482;25.548;2023-02-28T11:37:38;10.23;69.54
77467;DHT22;66564;42.482;25.548;2023-02-28T11:40:15;10.10;69.70
77467;DHT22;66564;42.482;25.548;2023-02-28T11:43:14;9.79;70.52
77467;DHT22;66564;42.482;25.548;2023-02-28T11:48:33;9.81;70.47
77467;DHT22;66564;42.482;25.548;2023-02-28T11:51:22;9.81;70.61
77467;DHT22;66564;42.482;25.548;2023-02-28T11:54:02;9.62;71.13
77467;DHT22;66564;42.482;25.548;2023-02-28T11:56:39;9.40;71.87
77467;DHT22;66564;42.482;25.548;2023-02-28T12:04:25;9.31;72.70
77467;DHT22;66564;42.482;25.548;2023-02-28T12:07:09;9.34;72.45
77467;DHT22;66564;42.482;25.548;2023-02-28T12:09:51;9.35;72.51
77467;DHT22;66564;42.482;25.548;2023-02-28T12:15:14;9.44;72.00
77467;DHT22;66564;42.482;25.548;2023-02-28T12:20:45;8.89;73.52
77467;DHT22;66564;42.482;25.548;2023-02-28T12:23:44;9.10;73.04
77467;DHT22;66564;42.482;25.548;2023-02-28T12:29:47;9.16;73.10
77467;DHT22;66564;42.482;25.548;2023-02-28T12:34:55;9.23;72.74
77467;DHT22;66564;42.482;25.548;2023-02-28T12:37:29;9.21;73.02
77467;DHT22;66564;42.482;25.548;2023-02-28T12:40:02;9.26;72.93
77467;DHT22;66564;42.482;25.548;2023-02-28T12:42:43;9.26;72.80
77467;DHT22;66564;42.482;25.548;2023-02-28T12:45:19;9.23;72.77
77467;DHT22;66564;42.482;25.548;2023-02-28T12:47:49;9.24;72.79
77467;DHT22;66564;42.482;25.548;2023-02-28T12:50:15;9.27;72.87
77467;DHT22;66564;42.482;25.548;2023-02-28T12:56:14;9.23;72.89
77467;DHT22;66564;42.482;25.548;2023-02-28T12:58:51;9.04;73.53
77467;DHT22;66564;42.482;25.548;2023-02-28T13:09:14;8.72;74.55
77467;DHT22;66564;42.482;25.548;2023-02-28T13:11:48;8.39;76.12
77467;DHT22;66564;42.482;25.548;2023-02-28T13:19:35;8.49;75.54
77467;DHT22;66564;42.482;25.548;2023-02-28T13:22:03;8.50;75.48
77467;DHT22;66564;42.482;25.548;2023-02-28T13:29:36;8.41;75.30
77467;DHT22;66564;42.482;25.548;2023-02-28T13:42:35;8.44;75.48
77467;DHT22;66564;42.482;25.548;2023-02-28T13:50:24;8.12;76.62
77467;DHT22;66564;42.482;25.548;2023-02-28T13:58:54;8.05;76.73
77467;DHT22;66564;42.482;25.548;2023-02-28T14:01:27;8.15;76.65
77467;DHT22;66564;42.482;25.548;2023-02-28T14:06:58;8.04;76.72
77467;DHT22;66564;42.482;25.548;2023-02-28T14:15:01;7.85;77.49
77467;DHT22;66564;42.482;25.548;2023-02-28T14:17:27;7.99;76.99
77467;DHT22;66564;42.482;25.548;2023-02-28T14:19:53;7.92;77.00
77467;DHT22;66564;42.482;25.548;2023-02-28T14:22:49;7.90;77.27
77467;DHT22;66564;42.482;25.548;2023-02-28T14:34:12;7.92;77.38
77467;DHT22;66564;42.482;25.548;2023-02-28T14:36:42;7.84;77.76
77467;DHT22;66564;42.482;25.548;2023-02-28T14:39:44;7.98;77.22
77467;DHT22;66564;42.482;25.548;2023-02-28T14:42:03;8.09;76.86
77467;DHT22;66564;42.482;25.548;2023-02-28T14:44:30;7.94;77.00
77467;DHT22;66564;42.482;25.548;2023-02-28T14:46:58;7.98;77.21
77467;DHT22;66564;42.482;25.548;2023-02-28T14:49:34;8.09;76.76
77467;DHT22;66564;42.482;25.548;2023-02-28T14:54:29;8.05;76.75
77467;DHT22;66564;42.482;25.548;2023-02-28T14:56:55;8.08;76.57
77467;DHT22;66564;42.482;25.548;2023-02-28T14:59:29;7.97;76.98
77467;DHT22;66564;42.482;25.548;2023-02-28T15:02:17;7.99;76.98
77467;DHT22;66564;42.482;25.548;2023-02-28T15:04:43;7.94;77.37
77467;DHT22;66564;42.482;25.548;2023-02-28T15:07:14;7.94;77.34
77467;DHT22;66564;42.482;25.548;2023-02-28T15:09:41;7.87;77.49
77467;DHT22;66564;42.482;25.548;2023-02-28T15:12:06;7.85;77.66
77467;DHT22;66564;42.482;25.548;2023-02-28T15:14:34;7.92;77.41
77467;DHT22;66564;42.482;25.548;2023-02-28T15:17:09;7.71;77.89
77467;DHT22;66564;42.482;25.548;2023-02-28T15:19:41;7.80;77.92
77467;DHT22;66564;42.482;25.548;2023-02-28T15:22:13;7.73;78.32
77467;DHT22;66564;42.482;25.548;2023-02-28T15:24:46;7.75;78.14
77467;DHT22;66564;42.482;25.548;2023-02-28T15:27:29;7.69;78.61
77467;DHT22;66564;42.482;25.548;2023-02-28T15:30:00;7.12;81.14
77467;DHT22;66564;42.482;25.548;2023-02-28T15:32:38;7.47;79.81
77467;DHT22;66564;42.482;25.548;2023-02-28T15:37:57;7.43;80.09
77467;DHT22;66564;42.482;25.548;2023-02-28T15:40:36;7.22;81.17
77467;DHT22;66564;42.482;25.548;2023-02-28T15:43:17;7.36;79.97
77467;DHT22;66564;42.482;25.548;2023-02-28T15:45:50;7.51;79.73
77467;DHT22;66564;42.482;25.548;2023-02-28T15:48:20;7.69;79.20
77467;DHT22;66564;42.482;25.548;2023-02-28T15:50:52;7.60;79.05
77467;DHT22;66564;42.482;25.548;2023-02-28T15:53:25;7.51;79.59
77467;DHT22;66564;42.482;25.548;2023-02-28T15:56:04;6.81;81.86
77467;DHT22;66564;42.482;25.548;2023-02-28T15:58:30;6.91;82.25
77467;DHT22;66564;42.482;25.548;2023-02-28T16:01:29;7.15;80.97
77467;DHT22;66564;42.482;25.548;2023-02-28T16:04:05;7.19;80.52
77467;DHT22;66564;42.482;25.548;2023-02-28T16:06:40;7.12;80.69
77467;DHT22;66564;42.482;25.548;2023-02-28T16:09:12;7.12;80.64
77467;DHT22;66564;42.482;25.548;2023-02-28T16:11:42;7.10;80.81
77467;DHT22;66564;42.482;25.548;2023-02-28T16:14:20;7.15;80.53
77467;DHT22;66564;42.482;25.548;2023-02-28T16:16:51;7.17;80.56
77467;DHT22;66564;42.482;25.548;2023-02-28T16:19:17;7.10;80.76
77467;DHT22;66564;42.482;25.548;2023-02-28T16:21:43;7.12;80.73
77467;DHT22;66564;42.482;25.548;2023-02-28T16:24:08;7.07;80.84
77467;DHT22;66564;42.482;25.548;2023-02-28T16:26:34;7.13;80.74
77467;DHT22;66564;42.482;25.548;2023-02-28T16:29:01;7.05;81.10
77467;DHT22;66564;42.482;25.548;2023-02-28T16:31:27;6.86;81.77
77467;DHT22;66564;42.482;25.548;2023-02-28T16:33:56;6.79;81.79
77467;DHT22;66564;42.482;25.548;2023-02-28T16:36:23;6.82;81.92
77467;DHT22;66564;42.482;25.548;2023-02-28T16:38:51;6.89;81.70
77467;DHT22;66564;42.482;25.548;2023-02-28T16:41:22;6.85;81.56
77467;DHT22;66564;42.482;25.548;2023-02-28T16:43:52;6.79;81.52
77467;DHT22;66564;42.482;25.548;2023-02-28T16:46:19;6.83;81.48
77467;DHT22;66564;42.482;25.548;2023-02-28T16:48:45;6.83;81.71
77467;DHT22;66564;42.482;25.548;2023-02-28T16:51:15;6.81;81.58
77467;DHT22;66564;42.482;25.548;2023-02-28T16:53:41;6.79;81.70
77467;DHT22;66564;42.482;25.548;2023-02-28T16:56:15;6.59;82.47
77467;DHT22;66564;42.482;25.548;2023-02-28T16:58:41;6.53;82.93
77467;DHT22;66564;42.482;25.548;2023-02-28T17:01:07;6.71;82.33
77467;DHT22;66564;42.482;25.548;2023-02-28T17:03:32;6.49;83.18
77467;DHT22;66564;42.482;25.548;2023-02-28T17:05:58;6.61;82.53
77467;DHT22;66564;42.482;25.548;2023-02-28T17:08:24;6.68;82.26
77467;DHT22;66564;42.482;25.548;2023-02-28T17:10:49;6.81;81.52
77467;DHT22;66564;42.482;25.548;2023-02-28T17:13:15;6.69;82.08
77467;DHT22;66564;42.482;25.548;2023-02-28T17:15:41;6.78;81.70
77467;DHT22;66564;42.482;25.548;2023-02-28T17:18:06;6.86;81.16
77467;DHT22;66564;42.482;25.548;2023-02-28T17:20:34;6.88;81.02
77467;DHT22;66564;42.482;25.548;2023-02-28T17:23:00;6.95;80.75
77467;DHT22;66564;42.482;25.548;2023-02-28T17:25:26;6.95;80.77
77467;DHT22;66564;42.482;25.548;2023-02-28T17:27:51;6.83;81.24
77467;DHT22;66564;42.482;25.548;2023-02-28T17:30:21;6.97;80.71
77467;DHT22;66564;42.482;25.548;2023-02-28T17:32:47;7.05;80.50
77467;DHT22;66564;42.482;25.548;2023-02-28T17:35:13;6.97;80.77
77467;DHT22;66564;42.482;25.548;2023-02-28T17:37:38;6.88;80.91
77467;DHT22;66564;42.482;25.548;2023-02-28T17:40:05;7.03;79.92
77467;DHT22;66564;42.482;25.548;2023-02-28T17:42:31;7.03;79.97
77467;DHT22;66564;42.482;25.548;2023-02-28T17:44:57;6.82;80.83
77467;DHT22;66564;42.482;25.548;2023-02-28T17:47:22;6.95;79.88
77467;DHT22;66564;42.482;25.548;2023-02-28T17:49:48;6.99;80.12
77467;DHT22;66564;42.482;25.548;2023-02-28T17:52:13;6.99;80.24
77467;DHT22;66564;42.482;25.548;2023-02-28T17:54:40;6.88;80.78
77467;DHT22;66564;42.482;25.548;2023-02-28T17:57:05;6.88;80.19
77467;DHT22;66564;42.482;25.548;2023-02-28T17:59:31;6.79;80.69
77467;DHT22;66564;42.482;25.548;2023-02-28T18:02:02;6.81;80.43
77467;DHT22;66564;42.482;25.548;2023-02-28T18:04:29;6.85;80.19
77467;DHT22;66564;42.482;25.548;2023-02-28T18:06:57;6.88;79.62
77467;DHT22;66564;42.482;25.548;2023-02-28T18:09:26;6.83;79.95
77467;DHT22;66564;42.482;25.548;2023-02-28T18:11:53;6.78;79.80